sensor_id;sensor_type;location;lat;lon;timestamp;pressure;altitude;pressure_sealevel;temperature;humidity
59391;BME280;53405;57.012;40.984;2023-01-24T00:00:37;102355.06;;;-4.83;81.89
59391;BME280;53405;57.012;40.984;2023-01-24T00:03:25;102361.72;;;-4.70;82.03
59391;BME280;53405;57.012;40.984;2023-01-24T00:06:13;102352.53;;;-4.85;81.78
59391;BME280;53405;57.012;40.984;2023-01-24T00:09:01;102345.34;;;-4.61;81.20
59391;BME280;53405;57.012;40.984;2023-01-24T00:11:48;102336.88;;;-4.68;81.36
59391;BME280;53405;57.012;40.984;2023-01-24T00:14:36;102340.25;;;-4.64;80.96
59391;BME280;53405;57.012;40.984;2023-01-24T00:17:24;102329.09;;;-4.63;80.68
59391;BME280;53405;57.012;40.984;2023-01-24T00:20:11;102325.09;;;-4.84;81.45
59391;BME280;53405;57.012;40.984;2023-01-24T00:22:59;102332.03;;;-4.32;78.86
59391;BME280;53405;57.012;40.984;2023-01-24T00:25:46;102317.88;;;-4.59;79.42
59391;BME280;53405;57.012;40.984;2023-01-24T00:28:34;102332.44;;;-4.58;80.00
59391;BME280;53405;57.012;40.984;2023-01-24T00:31:22;102330.69;;;-4.58;79.55
59391;BME280;53405;57.012;40.984;2023-01-24T00:34:10;102331.13;;;-4.85;80.85
59391;BME280;53405;57.012;40.984;2023-01-24T00:36:57;102342.13;;;-4.77;81.38
59391;BME280;53405;57.012;40.984;2023-01-24T00:39:45;102328.91;;;-4.53;79.12
59391;BME280;53405;57.012;40.984;2023-01-24T00:42:32;102321.34;;;-4.62;79.31
59391;BME280;53405;57.012;40.984;2023-01-24T00:45:20;102337.84;;;-4.78;79.87
59391;BME280;53405;57.012;40.984;2023-01-24T00:48:09;102333.47;;;-4.72;80.64
59391;BME280;53405;57.012;40.984;2023-01-24T00:50:56;102340.59;;;-4.91;80.38
59391;BME280;53405;57.012;40.984;2023-01-24T00:53:44;102343.09;;;-4.86;80.53
59391;BME280;53405;57.012;40.984;2023-01-24T00:56:32;102328.84;;;-5.07;80.60
59391;BME280;53405;57.012;40.984;2023-01-24T00:59:19;102339.00;;;-4.98;80.96
59391;BME280;53405;57.012;40.984;2023-01-24T01:02:07;102340.84;;;-5.09;81.75
59391;BME280;53405;57.012;40.984;2023-01-24T01:04:54;102317.59;;;-5.01;81.02
59391;BME280;53405;57.012;40.984;2023-01-24T01:07:42;102329.56;;;-4.97;81.52
59391;BME280;53405;57.012;40.984;2023-01-24T01:10:30;102314.94;;;-4.94;81.22
59391;BME280;53405;57.012;40.984;2023-01-24T01:13:17;102314.69;;;-4.75;80.86
59391;BME280;53405;57.012;40.984;2023-01-24T01:16:06;102316.56;;;-4.88;80.54
59391;BME280;53405;57.012;40.984;2023-01-24T01:18:55;102305.69;;;-4.49;80.60
59391;BME280;53405;57.012;40.984;2023-01-24T01:21:43;102300.50;;;-4.46;79.05
59391;BME280;53405;57.012;40.984;2023-01-24T01:24:31;102281.06;;;-4.63;79.05
59391;BME280;53405;57.012;40.984;2023-01-24T01:27:19;102289.66;;;-4.65;78.84
59391;BME280;53405;57.012;40.984;2023-01-24T01:30:07;102279.03;;;-5.00;79.70
59391;BME280;53405;57.012;40.984;2023-01-24T01:32:55;102284.28;;;-5.06;80.88
59391;BME280;53405;57.012;40.984;2023-01-24T01:35:42;102274.66;;;-4.92;80.57
59391;BME280;53405;57.012;40.984;2023-01-24T01:38:30;102272.13;;;-4.95;80.59
59391;BME280;53405;57.012;40.984;2023-01-24T01:41:17;102271.09;;;-4.84;80.02
59391;BME280;53405;57.012;40.984;2023-01-24T01:44:28;102264.38;;;-4.92;79.97
59391;BME280;53405;57.012;40.984;2023-01-24T01:47:34;102268.88;;;-5.06;80.43
59391;BME280;53405;57.012;40.984;2023-01-24T01:50:30;102256.50;;;-4.81;79.92
59391;BME280;53405;57.012;40.984;2023-01-24T01:53:20;102248.16;;;-4.98;79.91
59391;BME280;53405;57.012;40.984;2023-01-24T01:56:12;102242.69;;;-5.34;81.22
59391;BME280;53405;57.012;40.984;2023-01-24T01:59:11;102235.06;;;-5.39;82.23
59391;BME280;53405;57.012;40.984;2023-01-24T02:02:02;102213.63;;;-5.38;81.64
59391;BME280;53405;57.012;40.984;2023-01-24T02:05:00;102231.53;;;-5.33;82.16
59391;BME280;53405;57.012;40.984;2023-01-24T02:08:05;102233.25;;;-5.34;81.73
59391;BME280;53405;57.012;40.984;2023-01-24T02:10:55;102199.16;;;-5.43;80.89
59391;BME280;53405;57.012;40.984;2023-01-24T02:14:03;102221.09;;;-5.21;80.54
59391;BME280;53405;57.012;40.984;2023-01-24T02:17:17;102209.16;;;-5.25;79.56
59391;BME280;53405;57.012;40.984;2023-01-24T02:26:24;102196.97;;;-5.74;80.67
59391;BME280;53405;57.012;40.984;2023-01-24T02:29:14;102208.81;;;-5.63;81.20
59391;BME280;53405;57.012;40.984;2023-01-24T02:32:06;102185.94;;;-5.81;80.90
59391;BME280;53405;57.012;40.984;2023-01-24T02:34:54;102194.38;;;-5.71;80.97
59391;BME280;53405;57.012;40.984;2023-01-24T02:37:44;102201.38;;;-5.83;82.08
59391;BME280;53405;57.012;40.984;2023-01-24T02:40:32;102198.66;;;-5.72;81.75
59391;BME280;53405;57.012;40.984;2023-01-24T02:43:23;102188.56;;;-5.86;82.00
59391;BME280;53405;57.012;40.984;2023-01-24T02:46:12;102189.34;;;-5.81;82.04
59391;BME280;53405;57.012;40.984;2023-01-24T02:49:01;102181.78;;;-5.91;82.47
59391;BME280;53405;57.012;40.984;2023-01-24T02:51:50;102192.00;;;-5.88;82.71
59391;BME280;53405;57.012;40.984;2023-01-24T02:54:56;102193.69;;;-5.86;81.86
59391;BME280;53405;57.012;40.984;2023-01-24T02:57:44;102189.47;;;-5.90;81.53
59391;BME280;53405;57.012;40.984;2023-01-24T03:00:51;102189.41;;;-5.87;82.57
59391;BME280;53405;57.012;40.984;2023-01-24T03:03:39;102197.78;;;-5.71;81.98
59391;BME280;53405;57.012;40.984;2023-01-24T03:06:27;102186.94;;;-5.93;81.75
59391;BME280;53405;57.012;40.984;2023-01-24T03:09:15;102188.75;;;-5.98;81.89
59391;BME280;53405;57.012;40.984;2023-01-24T03:12:10;102191.97;;;-5.85;82.24
59391;BME280;53405;57.012;40.984;2023-01-24T03:15:16;102188.47;;;-5.76;81.50
59391;BME280;53405;57.012;40.984;2023-01-24T03:18:22;102176.44;;;-5.74;80.74
59391;BME280;53405;57.012;40.984;2023-01-24T03:21:28;102183.22;;;-5.69;80.63
59391;BME280;53405;57.012;40.984;2023-01-24T03:24:35;102166.56;;;-6.01;81.77
59391;BME280;53405;57.012;40.984;2023-01-24T03:27:40;102175.56;;;-5.72;81.03
59391;BME280;53405;57.012;40.984;2023-01-24T03:30:50;102172.38;;;-5.91;81.44
59391;BME280;53405;57.012;40.984;2023-01-24T03:33:58;102176.03;;;-6.09;81.91
59391;BME280;53405;57.012;40.984;2023-01-24T03:37:06;102165.03;;;-6.19;82.39
59391;BME280;53405;57.012;40.984;2023-01-24T03:39:53;102181.16;;;-6.07;82.15
59391;BME280;53405;57.012;40.984;2023-01-24T03:42:49;102182.59;;;-5.86;80.38
59391;BME280;53405;57.012;40.984;2023-01-24T03:45:40;102173.22;;;-5.90;81.18
59391;BME280;53405;57.012;40.984;2023-01-24T03:48:39;102163.75;;;-5.85;81.48
59391;BME280;53405;57.012;40.984;2023-01-24T03:51:27;102173.44;;;-6.07;81.53
59391;BME280;53405;57.012;40.984;2023-01-24T03:54:34;102169.19;;;-6.08;81.94
59391;BME280;53405;57.012;40.984;2023-01-24T03:57:24;102170.06;;;-6.09;81.39
59391;BME280;53405;57.012;40.984;2023-01-24T04:00:14;102162.31;;;-6.06;82.26
59391;BME280;53405;57.012;40.984;2023-01-24T04:03:11;102142.59;;;-6.03;82.55
59391;BME280;53405;57.012;40.984;2023-01-24T04:05:59;102152.00;;;-6.02;82.14
59391;BME280;53405;57.012;40.984;2023-01-24T04:08:47;102129.84;;;-6.09;81.92
59391;BME280;53405;57.012;40.984;2023-01-24T04:11:35;102134.00;;;-5.98;81.51
59391;BME280;53405;57.012;40.984;2023-01-24T04:14:32;102151.91;;;-5.95;81.22
59391;BME280;53405;57.012;40.984;2023-01-24T04:17:26;102093.69;;;-5.92;80.94
59391;BME280;53405;57.012;40.984;2023-01-24T04:20:15;102153.28;;;-5.71;80.96
59391;BME280;53405;57.012;40.984;2023-01-24T04:23:05;102161.84;;;-5.71;79.55
59391;BME280;53405;57.012;40.984;2023-01-24T04:25:54;102153.38;;;-5.77;79.98
59391;BME280;53405;57.012;40.984;2023-01-24T04:28:45;102148.94;;;-5.66;80.44
59391;BME280;53405;57.012;40.984;2023-01-24T04:31:33;102158.44;;;-5.71;79.37
59391;BME280;53405;57.012;40.984;2023-01-24T04:34:41;102145.16;;;-6.03;79.60
59391;BME280;53405;57.012;40.984;2023-01-24T04:37:37;102153.66;;;-5.97;80.45
59391;BME280;53405;57.012;40.984;2023-01-24T04:40:25;102152.13;;;-6.12;81.27
59391;BME280;53405;57.012;40.984;2023-01-24T04:43:13;102147.81;;;-6.09;80.79
59391;BME280;53405;57.012;40.984;2023-01-24T04:46:04;102157.09;;;-5.97;81.25
59391;BME280;53405;57.012;40.984;2023-01-24T04:49:13;102150.84;;;-5.81;81.87
59391;BME280;53405;57.012;40.984;2023-01-24T04:52:05;102136.34;;;-5.82;80.89
59391;BME280;53405;57.012;40.984;2023-01-24T04:55:06;102153.59;;;-5.94;81.66
59391;BME280;53405;57.012;40.984;2023-01-24T04:57:54;102148.41;;;-5.91;81.49
59391;BME280;53405;57.012;40.984;2023-01-24T05:00:42;102138.19;;;-5.94;82.03
59391;BME280;53405;57.012;40.984;2023-01-24T05:03:31;102124.41;;;-5.87;81.45
59391;BME280;53405;57.012;40.984;2023-01-24T05:06:19;102122.78;;;-5.93;80.68
59391;BME280;53405;57.012;40.984;2023-01-24T05:09:06;102132.81;;;-5.76;80.49
59391;BME280;53405;57.012;40.984;2023-01-24T05:12:04;102130.31;;;-5.81;80.94
59391;BME280;53405;57.012;40.984;2023-01-24T05:14:52;102129.72;;;-5.98;81.44
59391;BME280;53405;57.012;40.984;2023-01-24T05:17:43;102128.06;;;-6.01;81.08
59391;BME280;53405;57.012;40.984;2023-01-24T05:20:35;102128.91;;;-6.00;82.67
59391;BME280;53405;57.012;40.984;2023-01-24T05:23:23;102124.47;;;-5.90;81.76
59391;BME280;53405;57.012;40.984;2023-01-24T05:26:10;102119.38;;;-5.93;81.64
59391;BME280;53405;57.012;40.984;2023-01-24T05:28:59;102106.91;;;-5.59;81.15
59391;BME280;53405;57.012;40.984;2023-01-24T05:31:49;102102.63;;;-5.58;81.54
59391;BME280;53405;57.012;40.984;2023-01-24T05:34:36;102106.84;;;-5.53;82.01
59391;BME280;53405;57.012;40.984;2023-01-24T05:37:26;102101.81;;;-5.62;82.40
59391;BME280;53405;57.012;40.984;2023-01-24T05:40:15;102107.03;;;-5.67;81.33
59391;BME280;53405;57.012;40.984;2023-01-24T05:43:03;102097.53;;;-5.62;82.21
59391;BME280;53405;57.012;40.984;2023-01-24T05:45:51;102100.84;;;-5.52;82.98
59391;BME280;53405;57.012;40.984;2023-01-24T05:48:41;102106.97;;;-5.64;82.23
59391;BME280;53405;57.012;40.984;2023-01-24T05:51:30;102102.47;;;-5.48;82.57
59391;BME280;53405;57.012;40.984;2023-01-24T05:54:18;102094.91;;;-5.58;82.19
59391;BME280;53405;57.012;40.984;2023-01-24T05:57:19;102092.84;;;-5.35;81.81
59391;BME280;53405;57.012;40.984;2023-01-24T06:00:25;102087.66;;;-5.32;80.57
59391;BME280;53405;57.012;40.984;2023-01-24T06:03:38;102074.81;;;-5.32;82.50
59391;BME280;53405;57.012;40.984;2023-01-24T06:06:26;102085.88;;;-5.27;80.28
59391;BME280;53405;57.012;40.984;2023-01-24T06:09:15;102060.50;;;-5.45;81.14
59391;BME280;53405;57.012;40.984;2023-01-24T06:12:04;102070.31;;;-5.19;81.51
59391;BME280;53405;57.012;40.984;2023-01-24T06:14:51;102061.00;;;-5.24;82.41
59391;BME280;53405;57.012;40.984;2023-01-24T06:17:39;102071.84;;;-5.07;82.66
59391;BME280;53405;57.012;40.984;2023-01-24T06:20:27;102066.00;;;-5.15;83.21
59391;BME280;53405;57.012;40.984;2023-01-24T06:23:26;102070.16;;;-5.08;83.59
59391;BME280;53405;57.012;40.984;2023-01-24T06:26:21;102076.28;;;-5.15;81.60
59391;BME280;53405;57.012;40.984;2023-01-24T06:29:10;102071.94;;;-5.12;83.32
59391;BME280;53405;57.012;40.984;2023-01-24T06:32:05;102067.72;;;-5.17;81.10
59391;BME280;53405;57.012;40.984;2023-01-24T06:35:07;102071.50;;;-5.38;82.05
59391;BME280;53405;57.012;40.984;2023-01-24T06:37:57;102062.13;;;-5.41;81.63
59391;BME280;53405;57.012;40.984;2023-01-24T06:40:45;102068.19;;;-5.43;82.16
59391;BME280;53405;57.012;40.984;2023-01-24T06:43:33;102057.28;;;-5.58;82.78
59391;BME280;53405;57.012;40.984;2023-01-24T06:46:21;102048.13;;;-5.21;84.94
59391;BME280;53405;57.012;40.984;2023-01-24T06:49:10;102059.66;;;-4.96;84.18
59391;BME280;53405;57.012;40.984;2023-01-24T06:51:58;102042.88;;;-5.15;82.54
59391;BME280;53405;57.012;40.984;2023-01-24T06:54:46;102039.22;;;-5.52;82.76
59391;BME280;53405;57.012;40.984;2023-01-24T06:57:33;102049.88;;;-5.25;83.32
59391;BME280;53405;57.012;40.984;2023-01-24T07:00:21;102055.44;;;-5.50;83.76
59391;BME280;53405;57.012;40.984;2023-01-24T07:03:09;102067.34;;;-5.47;83.64
59391;BME280;53405;57.012;40.984;2023-01-24T07:05:57;102045.91;;;-5.43;84.50
59391;BME280;53405;57.012;40.984;2023-01-24T07:08:44;102054.97;;;-5.22;84.70
59391;BME280;53405;57.012;40.984;2023-01-24T07:11:32;102051.47;;;-5.18;84.26
59391;BME280;53405;57.012;40.984;2023-01-24T07:14:20;102059.94;;;-5.13;84.18
59391;BME280;53405;57.012;40.984;2023-01-24T07:17:07;102059.78;;;-5.03;83.92
59391;BME280;53405;57.012;40.984;2023-01-24T07:19:55;102057.09;;;-4.97;83.98
59391;BME280;53405;57.012;40.984;2023-01-24T07:22:43;102058.59;;;-4.84;84.49
59391;BME280;53405;57.012;40.984;2023-01-24T07:25:31;102046.19;;;-4.62;83.89
59391;BME280;53405;57.012;40.984;2023-01-24T07:28:19;102041.94;;;-4.64;85.05
59391;BME280;53405;57.012;40.984;2023-01-24T07:31:07;102050.22;;;-4.50;84.44
59391;BME280;53405;57.012;40.984;2023-01-24T07:33:54;102048.31;;;-4.40;84.80
59391;BME280;53405;57.012;40.984;2023-01-24T07:36:43;102057.59;;;-4.33;84.85
59391;BME280;53405;57.012;40.984;2023-01-24T07:39:30;102027.38;;;-4.23;83.57
59391;BME280;53405;57.012;40.984;2023-01-24T07:42:18;102054.72;;;-4.18;82.82
59391;BME280;53405;57.012;40.984;2023-01-24T07:45:07;102034.38;;;-4.30;82.50
59391;BME280;53405;57.012;40.984;2023-01-24T07:47:56;102050.03;;;-4.41;82.29
59391;BME280;53405;57.012;40.984;2023-01-24T07:50:44;102039.69;;;-4.38;83.17
59391;BME280;53405;57.012;40.984;2023-01-24T07:53:31;102040.47;;;-4.34;83.15
59391;BME280;53405;57.012;40.984;2023-01-24T07:56:19;102039.09;;;-4.50;83.40
59391;BME280;53405;57.012;40.984;2023-01-24T07:59:12;102040.53;;;-4.37;85.29
59391;BME280;53405;57.012;40.984;2023-01-24T08:02:01;102036.53;;;-4.10;85.42
59391;BME280;53405;57.012;40.984;2023-01-24T08:04:48;102015.72;;;-4.01;84.48
59391;BME280;53405;57.012;40.984;2023-01-24T08:07:36;102035.75;;;-3.76;84.15
59391;BME280;53405;57.012;40.984;2023-01-24T08:10:24;102025.56;;;-3.81;84.53
59391;BME280;53405;57.012;40.984;2023-01-24T08:13:11;102024.38;;;-3.66;83.72
59391;BME280;53405;57.012;40.984;2023-01-24T08:15:59;102021.84;;;-3.33;83.98
59391;BME280;53405;57.012;40.984;2023-01-24T08:18:48;102013.56;;;-3.46;83.09
59391;BME280;53405;57.012;40.984;2023-01-24T08:21:36;102011.97;;;-3.50;83.20
59391;BME280;53405;57.012;40.984;2023-01-24T08:24:24;102010.38;;;-3.55;83.48
59391;BME280;53405;57.012;40.984;2023-01-24T08:27:11;102003.00;;;-3.71;84.23
59391;BME280;53405;57.012;40.984;2023-01-24T08:29:59;101993.72;;;-3.76;84.83
59391;BME280;53405;57.012;40.984;2023-01-24T08:32:46;101992.81;;;-3.75;85.02
59391;BME280;53405;57.012;40.984;2023-01-24T08:35:34;101992.41;;;-3.58;85.44
59391;BME280;53405;57.012;40.984;2023-01-24T08:38:24;101988.81;;;-3.17;85.01
59391;BME280;53405;57.012;40.984;2023-01-24T08:41:12;101981.88;;;-3.15;84.50
59391;BME280;53405;57.012;40.984;2023-01-24T08:44:00;101975.84;;;-3.14;84.05
59391;BME280;53405;57.012;40.984;2023-01-24T08:46:49;101973.66;;;-3.29;84.45
59391;BME280;53405;57.012;40.984;2023-01-24T08:49:36;101966.94;;;-3.03;84.66
59391;BME280;53405;57.012;40.984;2023-01-24T08:52:24;101974.19;;;-2.85;84.41
59391;BME280;53405;57.012;40.984;2023-01-24T08:55:12;101946.53;;;-2.80;83.13
59391;BME280;53405;57.012;40.984;2023-01-24T08:58:01;101971.72;;;-2.89;84.56
59391;BME280;53405;57.012;40.984;2023-01-24T09:00:49;101968.38;;;-2.92;83.18
59391;BME280;53405;57.012;40.984;2023-01-24T09:03:37;101944.25;;;-3.22;84.57
59391;BME280;53405;57.012;40.984;2023-01-24T09:06:25;101962.16;;;-3.17;84.37
59391;BME280;53405;57.012;40.984;2023-01-24T09:09:14;101962.75;;;-3.08;84.82
59391;BME280;53405;57.012;40.984;2023-01-24T09:12:03;101946.78;;;-2.89;84.27
59391;BME280;53405;57.012;40.984;2023-01-24T09:14:54;101968.00;;;-2.79;83.46
59391;BME280;53405;57.012;40.984;2023-01-24T09:17:42;101970.66;;;-2.82;83.80
59391;BME280;53405;57.012;40.984;2023-01-24T09:20:30;101958.25;;;-2.99;83.87
59391;BME280;53405;57.012;40.984;2023-01-24T09:23:17;101959.59;;;-2.86;84.17
59391;BME280;53405;57.012;40.984;2023-01-24T09:26:05;101958.72;;;-2.85;84.69
59391;BME280;53405;57.012;40.984;2023-01-24T09:28:52;101949.78;;;-2.73;84.47
59391;BME280;53405;57.012;40.984;2023-01-24T09:31:40;101948.28;;;-2.50;84.20
59391;BME280;53405;57.012;40.984;2023-01-24T09:34:28;101951.56;;;-2.45;83.10
59391;BME280;53405;57.012;40.984;2023-01-24T09:37:17;101941.97;;;-2.42;83.70
59391;BME280;53405;57.012;40.984;2023-01-24T09:40:06;101926.66;;;-2.48;82.53
59391;BME280;53405;57.012;40.984;2023-01-24T09:46:36;101930.41;;;-2.86;83.54
59391;BME280;53405;57.012;40.984;2023-01-24T09:52:26;101902.59;;;-2.77;84.77
59391;BME280;53405;57.012;40.984;2023-01-24T09:55:16;101891.31;;;-2.73;83.55
59391;BME280;53405;57.012;40.984;2023-01-24T10:01:11;101876.81;;;-2.77;84.14
59391;BME280;53405;57.012;40.984;2023-01-24T10:03:59;101877.03;;;-2.56;84.64
59391;BME280;53405;57.012;40.984;2023-01-24T10:13:08;101863.34;;;-2.30;82.33
59391;BME280;53405;57.012;40.984;2023-01-24T10:16:22;101867.47;;;-2.26;81.60
59391;BME280;53405;57.012;40.984;2023-01-24T10:25:27;101868.22;;;-2.21;80.79
59391;BME280;53405;57.012;40.984;2023-01-24T10:31:34;101858.22;;;-2.05;80.65
59391;BME280;53405;57.012;40.984;2023-01-24T10:37:25;101848.13;;;-2.12;80.41
59391;BME280;53405;57.012;40.984;2023-01-24T10:40:16;101832.25;;;-2.27;81.14
59391;BME280;53405;57.012;40.984;2023-01-24T10:43:07;101822.78;;;-2.26;80.99
59391;BME280;53405;57.012;40.984;2023-01-24T10:48:46;101818.56;;;-2.04;79.74
59391;BME280;53405;57.012;40.984;2023-01-24T10:51:36;101803.94;;;-2.03;81.50
59391;BME280;53405;57.012;40.984;2023-01-24T10:54:23;101813.72;;;-1.88;79.97
59391;BME280;53405;57.012;40.984;2023-01-24T11:00:32;101805.53;;;-2.26;80.50
59391;BME280;53405;57.012;40.984;2023-01-24T11:03:27;101794.38;;;-2.26;80.79
59391;BME280;53405;57.012;40.984;2023-01-24T11:06:31;101791.94;;;-2.31;80.82
59391;BME280;53405;57.012;40.984;2023-01-24T11:09:26;101797.91;;;-2.04;81.27
59391;BME280;53405;57.012;40.984;2023-01-24T11:12:17;101790.88;;;-1.98;80.89
59391;BME280;53405;57.012;40.984;2023-01-24T11:15:17;101784.47;;;-1.88;79.18
59391;BME280;53405;57.012;40.984;2023-01-24T11:18:13;101784.38;;;-1.85;79.26
59391;BME280;53405;57.012;40.984;2023-01-24T11:21:13;101799.88;;;-1.85;79.50
59391;BME280;53405;57.012;40.984;2023-01-24T11:26:56;101782.09;;;-1.94;79.57
59391;BME280;53405;57.012;40.984;2023-01-24T11:29:44;101782.47;;;-1.80;79.26
59391;BME280;53405;57.012;40.984;2023-01-24T11:35:31;101787.16;;;-1.66;79.24
59391;BME280;53405;57.012;40.984;2023-01-24T11:38:25;101770.88;;;-1.68;78.45
59391;BME280;53405;57.012;40.984;2023-01-24T11:42:18;101773.66;;;-1.74;78.94
59391;BME280;53405;57.012;40.984;2023-01-24T11:48:18;101764.50;;;-1.59;78.14
59391;BME280;53405;57.012;40.984;2023-01-24T11:51:30;101755.19;;;-1.87;79.05
59391;BME280;53405;57.012;40.984;2023-01-24T11:55:03;101773.47;;;-1.93;79.18
59391;BME280;53405;57.012;40.984;2023-01-24T12:04:42;101761.63;;;-1.75;78.92
59391;BME280;53405;57.012;40.984;2023-01-24T12:07:55;101768.81;;;-1.84;78.84
59391;BME280;53405;57.012;40.984;2023-01-24T12:18:07;101766.00;;;-2.01;79.83
59391;BME280;53405;57.012;40.984;2023-01-24T12:21:11;101757.72;;;-2.11;80.22
59391;BME280;53405;57.012;40.984;2023-01-24T12:24:08;101756.81;;;-2.10;80.63
59391;BME280;53405;57.012;40.984;2023-01-24T12:27:01;101750.09;;;-2.14;80.27
59391;BME280;53405;57.012;40.984;2023-01-24T12:36:35;101739.03;;;-1.92;79.59
59391;BME280;53405;57.012;40.984;2023-01-24T12:39:30;101731.97;;;-2.12;79.90
59391;BME280;53405;57.012;40.984;2023-01-24T12:45:45;101727.22;;;-2.25;80.48
59391;BME280;53405;57.012;40.984;2023-01-24T12:48:48;101734.69;;;-2.17;81.18
59391;BME280;53405;57.012;40.984;2023-01-24T12:51:44;101727.44;;;-1.82;79.81
59391;BME280;53405;57.012;40.984;2023-01-24T12:54:54;101731.84;;;-2.09;79.85
59391;BME280;53405;57.012;40.984;2023-01-24T12:58:00;101720.25;;;-2.23;80.46
59391;BME280;53405;57.012;40.984;2023-01-24T13:04:16;101727.69;;;-2.39;80.98
59391;BME280;53405;57.012;40.984;2023-01-24T13:13:45;101714.50;;;-2.06;82.61
59391;BME280;53405;57.012;40.984;2023-01-24T13:19:55;101711.94;;;-2.06;81.20
59391;BME280;53405;57.012;40.984;2023-01-24T13:29:28;101706.56;;;-2.25;81.25
59391;BME280;53405;57.012;40.984;2023-01-24T13:32:19;101704.66;;;-2.20;81.58
59391;BME280;53405;57.012;40.984;2023-01-24T13:35:26;101700.38;;;-2.19;80.41
59391;BME280;53405;57.012;40.984;2023-01-24T13:38:38;101659.34;;;-2.52;80.20
59391;BME280;53405;57.012;40.984;2023-01-24T13:44:28;101694.75;;;-2.32;81.37
59391;BME280;53405;57.012;40.984;2023-01-24T13:50:13;101678.19;;;-2.50;80.88
59391;BME280;53405;57.012;40.984;2023-01-24T13:53:01;101684.44;;;-2.57;81.43
59391;BME280;53405;57.012;40.984;2023-01-24T13:56:00;101680.91;;;-2.55;81.95
59391;BME280;53405;57.012;40.984;2023-01-24T13:58:51;101676.06;;;-2.64;82.55
59391;BME280;53405;57.012;40.984;2023-01-24T14:01:44;101685.41;;;-2.60;81.72
59391;BME280;53405;57.012;40.984;2023-01-24T14:04:40;101669.75;;;-2.80;82.10
59391;BME280;53405;57.012;40.984;2023-01-24T14:07:30;101684.66;;;-2.63;82.18
59391;BME280;53405;57.012;40.984;2023-01-24T14:13:43;101676.13;;;-2.65;81.66
59391;BME280;53405;57.012;40.984;2023-01-24T14:19:36;101678.31;;;-2.80;82.50
59391;BME280;53405;57.012;40.984;2023-01-24T14:22:33;101677.44;;;-2.79;82.67
59391;BME280;53405;57.012;40.984;2023-01-24T14:28:31;101677.41;;;-2.52;81.92
59391;BME280;53405;57.012;40.984;2023-01-24T14:31:25;101667.72;;;-2.45;82.75
59391;BME280;53405;57.012;40.984;2023-01-24T14:34:25;101664.47;;;-2.50;81.97
59391;BME280;53405;57.012;40.984;2023-01-24T14:37:17;101660.13;;;-2.50;81.59
59391;BME280;53405;57.012;40.984;2023-01-24T14:43:01;101654.25;;;-2.53;82.06
59391;BME280;53405;57.012;40.984;2023-01-24T14:45:50;101652.75;;;-2.61;82.00
59391;BME280;53405;57.012;40.984;2023-01-24T14:48:38;101652.91;;;-2.65;82.17
59391;BME280;53405;57.012;40.984;2023-01-24T14:51:25;101658.53;;;-2.54;82.68
59391;BME280;53405;57.012;40.984;2023-01-24T14:54:23;101664.66;;;-2.57;82.55
59391;BME280;53405;57.012;40.984;2023-01-24T15:03:00;101662.44;;;-2.67;82.50
59391;BME280;53405;57.012;40.984;2023-01-24T15:06:03;101665.34;;;-2.51;82.75
59391;BME280;53405;57.012;40.984;2023-01-24T15:09:00;101651.59;;;-2.52;82.46
59391;BME280;53405;57.012;40.984;2023-01-24T15:11:48;101646.56;;;-2.55;81.93
59391;BME280;53405;57.012;40.984;2023-01-24T15:14:52;101645.13;;;-2.64;82.29
59391;BME280;53405;57.012;40.984;2023-01-24T15:17:44;101649.66;;;-2.45;83.31
59391;BME280;53405;57.012;40.984;2023-01-24T15:20:33;101655.41;;;-2.13;83.39
59391;BME280;53405;57.012;40.984;2023-01-24T15:23:23;101646.69;;;-2.34;81.23
59391;BME280;53405;57.012;40.984;2023-01-24T15:26:40;101633.13;;;-2.40;81.83
59391;BME280;53405;57.012;40.984;2023-01-24T15:35:29;101628.38;;;-2.27;82.38
59391;BME280;53405;57.012;40.984;2023-01-24T15:44:06;101622.03;;;-2.43;81.88
59391;BME280;53405;57.012;40.984;2023-01-24T15:46:56;101614.41;;;-2.46;81.77
59391;BME280;53405;57.012;40.984;2023-01-24T15:50:17;101616.19;;;-2.23;82.71
59391;BME280;53405;57.012;40.984;2023-01-24T15:53:27;101609.03;;;-2.40;81.88
59391;BME280;53405;57.012;40.984;2023-01-24T15:56:20;101594.13;;;-2.57;81.98
59391;BME280;53405;57.012;40.984;2023-01-24T15:59:16;101602.25;;;-2.43;82.35
59391;BME280;53405;57.012;40.984;2023-01-24T16:02:13;101613.53;;;-2.45;82.05
59391;BME280;53405;57.012;40.984;2023-01-24T16:05:01;101606.88;;;-2.52;82.43
59391;BME280;53405;57.012;40.984;2023-01-24T16:07:56;101588.81;;;-2.52;82.78
59391;BME280;53405;57.012;40.984;2023-01-24T16:10:45;101597.00;;;-2.40;82.74
59391;BME280;53405;57.012;40.984;2023-01-24T16:13:41;101597.09;;;-2.43;82.33
59391;BME280;53405;57.012;40.984;2023-01-24T16:16:33;101587.66;;;-2.44;82.92
59391;BME280;53405;57.012;40.984;2023-01-24T16:19:22;101598.50;;;-2.34;82.12
59391;BME280;53405;57.012;40.984;2023-01-24T16:22:21;101591.38;;;-2.27;82.95
59391;BME280;53405;57.012;40.984;2023-01-24T16:25:11;101595.47;;;-2.22;82.00
59391;BME280;53405;57.012;40.984;2023-01-24T16:28:00;101599.84;;;-2.24;81.81
59391;BME280;53405;57.012;40.984;2023-01-24T16:30:48;101609.16;;;-2.20;81.78
59391;BME280;53405;57.012;40.984;2023-01-24T16:33:37;101605.34;;;-2.33;82.64
59391;BME280;53405;57.012;40.984;2023-01-24T16:36:25;101609.38;;;-2.26;82.03
59391;BME280;53405;57.012;40.984;2023-01-24T16:39:16;101613.53;;;-2.22;81.99
59391;BME280;53405;57.012;40.984;2023-01-24T16:42:15;101602.66;;;-2.30;83.00
59391;BME280;53405;57.012;40.984;2023-01-24T16:45:04;101605.03;;;-2.24;82.02
59391;BME280;53405;57.012;40.984;2023-01-24T16:47:52;101593.22;;;-2.07;82.26
59391;BME280;53405;57.012;40.984;2023-01-24T16:50:41;101601.41;;;-2.20;81.46
59391;BME280;53405;57.012;40.984;2023-01-24T16:53:32;101595.84;;;-2.32;82.75
59391;BME280;53405;57.012;40.984;2023-01-24T16:56:21;101593.78;;;-2.23;82.08
59391;BME280;53405;57.012;40.984;2023-01-24T16:59:08;101588.72;;;-2.26;81.94